Time;durP1;ratioP1;P1;durP2;ratioP2;P2;SDS_P1;SDS_P2;PMS_P1;PMS_P2;Temp;Humidity;BMP_temperature;BMP_pressure;BME280_temperature;BME280_humidity;BME280_pressure;Samples;Min_cycle;Max_cycle;Signal;HPM_P1;HPM_P2
2022/04/25 00:00:48;;;;;;;1.23;0.40;;;;;;;7.21;100.00;93628.09;5000006;28;20128;-93
2022/04/25 00:03:24;;;;;;;2.17;0.32;;;;;;;7.57;100.00;93629.03;5016144;28;20084;-93
2022/04/25 00:05:51;;;;;;;2.10;0.28;;;;;;;7.84;100.00;93612.25;5000819;28;20030;-92
2022/04/25 00:08:19;;;;;;;1.58;0.43;;;;;;;7.68;100.00;93625.34;5000207;28;20050;-92
2022/04/25 00:10:57;;;;;;;;;;;;;;;;;;;;;
2022/04/25 00:13:26;;;;;;;0.57;0.40;;;;;;;7.64;100.00;93629.56;5015888;28;20026;-91
2022/04/25 00:16:02;;;;;;;2.15;0.35;;;;;;;7.67;100.00;93628.22;5000463;28;20022;-93
2022/04/25 00:18:27;;;;;;;1.38;0.40;;;;;;;7.73;100.00;93638.38;5017471;28;20042;-92
2022/04/25 00:20:55;;;;;;;0.82;0.32;;;;;;;7.64;100.00;93630.31;5032455;28;20041;-93
2022/04/25 00:23:23;;;;;;;2.10;0.50;;;;;;;7.74;100.00;93639.94;5001869;28;20026;-92
2022/04/25 00:25:49;;;;;;;0.95;0.35;;;;;;;7.57;100.00;93634.25;5019413;28;20034;-94
2022/04/25 00:28:14;;;;;;;4.25;0.45;;;;;;;7.58;100.00;93636.59;5019264;28;20128;-93
2022/04/25 00:30:50;;;;;;;;;;;;;;;;;;;;;
2022/04/25 00:33:20;;;;;;;0.73;0.30;;;;;;;7.63;100.00;93633.22;5019378;28;20017;-92
2022/04/25 00:35:49;;;;;;;2.50;0.45;;;;;;;7.52;100.00;93642.88;5003462;28;20060;-92
2022/04/25 00:38:21;;;;;;;1.90;0.30;;;;;;;7.53;100.00;93644.47;5003710;28;20026;-92
2022/04/25 00:40:47;;;;;;;1.30;0.45;;;;;;;7.60;100.00;93644.94;5019215;28;20034;-93
2022/04/25 00:46:35;;;;;;;0.30;0.28;;;;;;;7.42;100.00;93629.88;5020192;28;20367;-92
2022/04/25 00:49:00;;;;;;;0.93;0.52;;;;;;;7.36;100.00;93629.88;5019388;28;20026;-93
2022/04/25 00:54:50;;;;;;;1.55;0.40;;;;;;;7.59;100.00;93627.75;5019951;28;20060;-92
2022/04/25 00:57:16;;;;;;;0.52;0.30;;;;;;;7.46;100.00;93623.88;5003466;28;20416;-93
2022/04/25 00:59:50;;;;;;;1.65;0.40;;;;;;;7.38;100.00;93627.03;5018913;28;20036;-92
2022/04/25 01:02:26;;;;;;;;;;;;;;;;;;;;;
2022/04/25 01:04:55;;;;;;;1.85;0.30;;;;;;;6.84;100.00;93623.97;5019028;28;20018;-94
2022/04/25 01:07:21;;;;;;;5.38;0.50;;;;;;;6.88;100.00;93619.78;5018938;28;20052;-92
2022/04/25 01:09:55;;;;;;;2.10;0.30;;;;;;;7.05;100.00;93618.75;5002372;28;20021;-93
2022/04/25 01:12:21;;;;;;;1.70;0.38;;;;;;;7.10;100.00;93620.56;5018584;28;20033;-92
2022/04/25 01:14:46;;;;;;;2.30;0.30;;;;;;;6.84;100.00;93628.41;5002743;28;20033;-93
2022/04/25 01:17:12;;;;;;;1.15;0.55;;;;;;;7.18;100.00;93618.22;5002797;28;20030;-93
2022/04/25 01:19:39;;;;;;;1.38;0.38;;;;;;;7.25;100.00;93622.34;5002653;28;20037;-92
2022/04/25 01:22:24;;;;;;;;;;;;;;;;;;;;;
2022/04/25 01:27:37;;;;;;;0.60;0.20;;;;;;;7.20;100.00;93617.94;5018634;28;20045;-93
2022/04/25 01:30:16;;;;;;;;;;;;;;;;;;;;;
2022/04/25 01:32:41;;;;;;;0.60;0.35;;;;;;;7.04;100.00;93612.00;5018185;28;20351;-91
2022/04/25 01:35:14;;;;;;;1.45;0.47;;;;;;;7.26;100.00;93621.31;5001444;28;20126;-91
2022/04/25 01:37:40;;;;;;;0.52;0.30;;;;;;;7.45;100.00;93624.91;5019328;28;20030;-92
2022/04/25 01:40:16;;;;;;;;;;;;;;;;;;;;;
2022/04/25 01:42:44;;;;;;;2.05;0.47;;;;;;;7.68;100.00;93614.16;5018418;28;20017;-92
2022/04/25 01:45:10;;;;;;;1.17;0.50;;;;;;;7.45;100.00;93614.47;5018548;28;20547;-93
2022/04/25 01:47:36;;;;;;;1.13;0.50;;;;;;;6.86;100.00;93614.06;5001952;28;20116;-93
2022/04/25 01:50:04;;;;;;;1.65;0.38;;;;;;;6.58;100.00;93615.41;5001964;28;20030;-92
2022/04/25 01:52:31;;;;;;;1.05;0.30;;;;;;;6.29;100.00;93606.25;5002342;28;20034;-93
2022/04/25 01:54:58;;;;;;;1.55;0.50;;;;;;;6.04;100.00;93602.59;5017981;28;20033;-92
2022/04/25 01:57:23;;;;;;;1.90;0.30;;;;;;;6.03;100.00;93603.63;5018029;28;20058;-92
2022/04/25 01:59:51;;;;;;;0.60;0.30;;;;;;;5.97;100.00;93609.03;5018091;28;20069;-93
2022/04/25 02:02:17;;;;;;;2.30;0.50;;;;;;;6.06;100.00;93600.50;5017906;28;20088;-93
2022/04/25 02:04:45;;;;;;;0.40;0.30;;;;;;;6.30;100.00;93604.44;5017570;28;20030;-92
2022/04/25 02:07:13;;;;;;;1.60;0.30;;;;;;;6.32;100.00;93610.97;5001465;28;20041;-93
2022/04/25 02:09:39;;;;;;;0.30;0.30;;;;;;;7.07;100.00;93604.41;5017565;28;20022;-92
2022/04/25 02:12:13;;;;;;;1.92;0.30;;;;;;;7.96;100.00;93609.31;5001241;28;20117;-92
2022/04/25 02:14:41;;;;;;;2.40;0.30;;;;;;;7.72;100.00;93597.69;5002091;28;20091;-92
2022/04/25 02:17:10;;;;;;;2.40;0.47;;;;;;;7.81;100.00;93602.38;5001673;28;20060;-92
2022/04/25 02:19:38;;;;;;;0.35;0.28;;;;;;;7.84;100.00;93607.03;5001458;28;20034;-93
2022/04/25 02:22:16;;;;;;;4.75;0.35;;;;;;;7.61;100.00;93602.19;5001105;28;20065;-91
2022/04/25 02:24:50;;;;;;;1.75;0.30;;;;;;;7.19;100.00;93604.16;5017348;28;20343;-94
2022/04/25 02:27:16;;;;;;;0.35;0.30;;;;;;;6.81;100.00;93608.88;5002426;28;20120;-92
2022/04/25 02:29:48;;;;;;;0.40;0.30;;;;;;;6.75;100.00;93600.28;5017075;28;20025;-93
2022/04/25 02:32:24;;;;;;;;;;;;;;;;;;;;;
2022/04/25 02:34:55;;;;;;;1.70;0.40;;;;;;;6.65;100.00;93593.28;5017180;28;20025;-93
2022/04/25 02:37:23;;;;;;;0.40;0.40;;;;;;;6.61;100.00;93597.44;5017028;28;20029;-92
2022/04/25 02:39:56;;;;;;;1.25;0.50;;;;;;;6.37;100.00;93589.34;5000979;28;20038;-93
2022/04/25 02:42:29;;;;;;;5.20;0.90;;;;;;;6.28;100.00;93585.72;5017065;28;20435;-92
2022/04/25 02:45:04;;;;;;;1.40;0.50;;;;;;;6.13;100.00;93591.66;5017063;28;20398;-92
2022/04/25 02:47:32;;;;;;;2.03;0.40;;;;;;;6.32;100.00;93586.75;5016992;28;20034;-93
2022/04/25 02:49:58;;;;;;;1.75;0.25;;;;;;;6.42;100.00;93580.78;5000924;28;20030;-92
2022/04/25 02:52:23;;;;;;;0.30;0.30;;;;;;;6.50;100.00;93580.25;5016654;28;20390;-93
2022/04/25 02:54:48;;;;;;;0.65;0.30;;;;;;;6.56;100.00;93581.81;5016786;28;20076;-93
2022/04/25 02:57:21;;;;;;;0.57;0.35;;;;;;;6.78;100.00;93576.31;5016956;28;20033;-91
2022/04/25 02:59:47;;;;;;;0.95;0.30;;;;;;;6.83;100.00;93582.59;5016762;28;20030;-93
2022/04/25 03:02:14;;;;;;;3.42;0.50;;;;;;;6.92;100.00;93576.59;5000471;28;20072;-92
2022/04/25 03:04:42;;;;;;;2.42;0.60;;;;;;;6.46;100.00;93574.78;5016800;28;20033;-91
2022/04/25 03:07:10;;;;;;;0.93;0.40;;;;;;;6.40;100.00;93575.03;5000162;28;20034;-92
2022/04/25 03:09:35;;;;;;;1.00;0.50;;;;;;;6.16;100.00;93565.94;5000661;28;20025;-92
2022/04/25 03:12:04;;;;;;;0.95;0.40;;;;;;;6.14;100.00;93562.03;5033049;28;20562;-92
2022/04/25 03:14:29;;;;;;;3.78;0.30;;;;;;;6.15;100.00;93566.97;5000987;28;20041;-93
2022/04/25 03:16:55;;;;;;;0.93;0.80;;;;;;;6.22;100.00;93566.72;5017114;28;20036;-92
2022/04/25 03:19:20;;;;;;;0.60;0.43;;;;;;;6.05;100.00;93567.75;5000372;28;20034;-93
2022/04/25 03:21:48;;;;;;;0.52;0.40;;;;;;;5.98;100.00;93569.00;5000469;28;20030;-93
2022/04/25 03:24:14;;;;;;;2.42;0.70;;;;;;;6.02;100.00;93568.25;5000336;28;20029;-93
2022/04/25 03:26:39;;;;;;;1.73;0.50;;;;;;;6.04;100.00;93575.78;5000654;28;20032;-92
2022/04/25 03:29:09;;;;;;;0.73;0.40;;;;;;;5.99;100.00;93568.72;5016654;28;20339;-93
2022/04/25 03:31:42;;;;;;;2.50;0.73;;;;;;;6.12;100.00;93566.69;5016386;28;20026;-91
2022/04/25 03:34:08;;;;;;;2.17;0.47;;;;;;;6.08;100.00;93558.63;5001263;28;20151;-92
2022/04/25 03:36:33;;;;;;;1.05;0.30;;;;;;;6.03;100.00;93567.22;5032851;28;20105;-93
2022/04/25 03:39:04;;;;;;;1.27;0.50;;;;;;;6.05;100.00;93562.53;4999783;28;20124;-93
2022/04/25 03:41:31;;;;;;;1.02;0.50;;;;;;;6.00;100.00;93557.28;5031937;28;20026;-92
2022/04/25 03:44:00;;;;;;;0.93;0.60;;;;;;;5.99;100.00;93558.31;5016430;28;20427;-93
2022/04/25 03:46:28;;;;;;;3.50;0.40;;;;;;;6.06;100.00;93558.91;5016965;28;20026;-93
2022/04/25 03:48:54;;;;;;;0.38;0.32;;;;;;;6.15;100.00;93555.78;5016218;28;20522;-93
2022/04/25 03:51:25;;;;;;;0.50;0.38;;;;;;;6.10;100.00;93556.56;5000352;28;20061;-93
2022/04/25 03:53:50;;;;;;;1.75;0.40;;;;;;;6.07;100.00;93554.47;5000537;28;20025;-93
2022/04/25 03:59:00;;;;;;;1.73;0.60;;;;;;;6.16;100.00;93565.94;5019328;28;20088;-93
2022/04/25 04:01:25;;;;;;;0.70;0.40;;;;;;;6.31;100.00;93557.38;5003851;28;20026;-93
2022/04/25 04:03:51;;;;;;;2.22;0.50;;;;;;;6.22;100.00;93562.28;5036471;28;20033;-93
2022/04/25 04:06:20;;;;;;;0.65;0.40;;;;;;;6.33;100.00;93563.09;5003508;28;20022;-93
2022/04/25 04:08:55;;;;;;;1.40;0.40;;;;;;;6.20;100.00;93559.16;5004252;28;20033;-93
2022/04/25 04:11:20;;;;;;;0.98;0.45;;;;;;;6.47;100.00;93565.94;5021102;28;20445;-93
2022/04/25 04:13:47;;;;;;;0.80;0.30;;;;;;;6.29;100.00;93562.03;5019757;28;20124;-93
2022/04/25 04:16:13;;;;;;;0.55;0.40;;;;;;;6.23;100.00;93568.28;5020194;28;20028;-94
2022/04/25 04:18:41;;;;;;;5.13;0.70;;;;;;;6.27;100.00;93566.72;5003841;28;20030;-93
2022/04/25 04:21:13;;;;;;;0.70;0.40;;;;;;;6.15;100.00;93566.97;5019614;28;20022;-93
2022/04/25 04:23:40;;;;;;;2.00;0.40;;;;;;;6.27;100.00;93569.31;5003534;28;20091;-93
2022/04/25 04:26:08;;;;;;;3.53;0.50;;;;;;;6.24;100.00;93569.84;5019999;28;20060;-93
2022/04/25 04:28:41;;;;;;;0.82;0.45;;;;;;;6.34;100.00;93580.25;5003560;28;20030;-93
2022/04/25 04:31:11;;;;;;;4.28;0.70;;;;;;;6.28;100.00;93581.28;5019496;28;20025;-93
2022/04/25 04:33:38;;;;;;;1.88;0.60;;;;;;;6.42;100.00;93578.16;5019329;28;20025;-93
2022/04/25 04:36:21;;;;;;;2.50;0.70;;;;;;;6.46;100.00;93580.00;5003838;28;20026;-93
2022/04/25 04:38:47;;;;;;;1.00;0.40;;;;;;;6.34;100.00;93577.66;5021687;28;20076;-93
2022/04/25 04:41:15;;;;;;;0.82;0.40;;;;;;;6.38;100.00;93575.28;5019665;28;20335;-93
2022/04/25 04:43:43;;;;;;;0.30;0.30;;;;;;;6.57;100.00;93580.78;5019598;28;20022;-93
2022/04/25 04:46:09;;;;;;;2.20;0.50;;;;;;;6.65;100.00;93577.66;5003112;28;20041;-92
2022/04/25 04:48:38;;;;;;;0.70;0.50;;;;;;;6.97;100.00;93581.00;5019228;28;20042;-93
2022/04/25 04:51:13;;;;;;;1.33;0.70;;;;;;;7.54;100.00;93580.06;5019450;28;20041;-93
2022/04/25 04:53:39;;;;;;;2.28;1.00;;;;;;;7.99;100.00;93577.50;5004140;28;20379;-91
2022/04/25 04:56:07;;;;;;;3.45;0.93;;;;;;;7.94;100.00;93586.13;5002863;28;20083;-94
2022/04/25 04:58:40;;;;;;;1.20;0.80;;;;;;;8.37;100.00;93582.97;5003148;28;20033;-94
2022/04/25 05:01:12;;;;;;;2.38;0.85;;;;;;;9.00;100.00;93597.13;5003960;28;20026;-93
2022/04/25 05:03:45;;;;;;;1.40;0.80;;;;;;;9.19;100.00;93594.63;5003925;28;20037;-94
2022/04/25 05:06:14;;;;;;;3.73;0.93;;;;;;;9.39;100.00;93605.91;5003365;28;20029;-93
2022/04/25 05:08:43;;;;;;;3.15;1.10;;;;;;;9.54;100.00;93612.03;5018811;28;20307;-92
2022/04/25 05:11:09;;;;;;;1.85;0.90;;;;;;;9.34;100.00;93605.97;5018142;28;20065;-92
2022/04/25 05:13:36;;;;;;;0.98;0.60;;;;;;;8.90;100.00;93607.69;5002818;28;20439;-92
2022/04/25 05:16:02;;;;;;;1.10;0.50;;;;;;;8.52;100.00;93615.28;5034876;28;20025;-92
2022/04/25 05:18:43;;;;;;;;;;;;;;;;;;;;;
2022/04/25 05:21:11;;;;;;;1.45;0.70;;;;;;;8.30;100.00;93619.81;5018598;28;20034;-92
2022/04/25 05:23:37;;;;;;;4.38;0.70;;;;;;;8.33;100.00;93615.91;5018784;28;20037;-92
2022/04/25 05:26:05;;;;;;;3.78;0.73;;;;;;;8.52;100.00;93618.69;5002442;28;20170;-92
2022/04/25 05:28:32;;;;;;;2.42;0.88;;;;;;;8.74;100.00;93623.47;5002143;28;20034;-90
2022/04/25 05:30:57;;;;;;;2.05;0.63;;;;;;;8.85;100.00;93624.16;5002007;28;20036;-90
2022/04/25 05:33:23;;;;;;;2.33;0.65;;;;;;;8.90;100.00;93629.38;5018491;28;20128;-90
2022/04/25 05:35:49;;;;;;;2.88;1.05;;;;;;;9.11;100.00;93621.34;5002130;28;20124;-91
2022/04/25 05:38:15;;;;;;;3.72;1.02;;;;;;;9.33;100.00;93630.56;5005084;28;20029;-89
2022/04/25 05:40:41;;;;;;;1.48;0.60;;;;;;;9.26;100.00;93637.94;5005247;28;20056;-91
2022/04/25 05:43:07;;;;;;;3.28;0.85;;;;;;;9.38;100.00;93633.09;5038747;28;20029;-91
2022/04/25 05:45:33;;;;;;;5.40;0.80;;;;;;;9.43;100.00;93635.66;5005141;28;20033;-92
2022/04/25 05:51:58;;;;;;;1.38;0.77;;;;;;;9.36;100.00;93643.06;5007800;28;20052;-91
2022/04/25 05:53:36;;;;;;;2.47;0.63;;;;;;;9.38;100.00;93642.78;5043377;28;20091;-91
2022/04/25 05:56:02;;;;;;;1.13;0.70;;;;;;;9.45;100.00;93656.31;5024750;28;20064;-91
2022/04/25 05:58:27;;;;;;;1.60;0.50;;;;;;;9.60;100.00;93644.91;5024497;28;20028;-90
2022/04/25 06:00:53;;;;;;;0.98;0.47;;;;;;;9.42;100.00;93649.03;5040763;28;20033;-90
2022/04/25 06:03:18;;;;;;;2.00;0.60;;;;;;;9.56;100.00;93647.31;5024594;28;20103;-90
2022/04/25 06:05:45;;;;;;;1.05;0.50;;;;;;;9.70;100.00;93647.41;5024221;28;20039;-90
2022/04/25 06:08:13;;;;;;;2.80;0.60;;;;;;;9.76;100.00;93650.75;5024286;28;20069;-91
2022/04/25 06:10:40;;;;;;;3.38;0.70;;;;;;;9.94;100.00;93659.69;5040394;28;20033;-91
2022/04/25 06:13:06;;;;;;;1.73;0.80;;;;;;;10.01;100.00;93662.75;5024161;28;20123;-91
2022/04/25 06:15:31;;;;;;;2.30;0.70;;;;;;;10.08;100.00;93659.78;5040831;28;20037;-91
2022/04/25 06:17:57;;;;;;;3.70;0.85;;;;;;;10.16;100.00;93666.22;5056993;28;20025;-90
2022/04/25 06:20:23;;;;;;;4.88;0.63;;;;;;;10.25;100.00;93648.84;5056533;28;20037;-91
2022/04/25 06:22:53;;;;;;;3.45;0.80;;;;;;;10.45;100.00;93650.44;5040287;28;20037;-90
2022/04/25 06:25:19;;;;;;;3.08;0.70;;;;;;;10.43;100.00;93657.81;5040048;28;20036;-89
2022/04/25 06:27:48;;;;;;;1.15;0.50;;;;;;;10.47;100.00;93655.38;5057172;28;20032;-91
2022/04/25 06:30:13;;;;;;;2.65;0.88;;;;;;;10.68;100.00;93652.47;5040524;28;20036;-90
2022/04/25 06:32:39;;;;;;;2.85;1.23;;;;;;;10.78;100.00;93652.31;5040322;28;20032;-92
2022/04/25 06:35:11;;;;;;;5.88;0.70;;;;;;;10.91;100.00;93653.44;5023613;28;20119;-91
2022/04/25 06:37:36;;;;;;;3.90;0.90;;;;;;;10.98;100.00;93655.69;5040056;28;20033;-91
2022/04/25 06:40:02;;;;;;;3.67;0.80;;;;;;;11.26;100.00;93667.03;5056516;28;20040;-92
2022/04/25 06:43:09;;;;;;;1.35;0.73;;;;;;;11.46;100.00;93659.88;5040187;28;20041;-92
2022/04/25 06:45:37;;;;;;;1.13;0.90;;;;;;;11.62;100.00;93668.25;5040317;28;20123;-91
2022/04/25 06:48:03;;;;;;;1.90;0.85;;;;;;;11.70;100.00;93672.06;5040079;28;20025;-92
2022/04/25 06:50:30;;;;;;;2.08;0.80;;;;;;;11.76;100.00;93676.13;5039823;28;20024;-91
2022/04/25 06:52:56;;;;;;;3.17;0.70;;;;;;;11.83;100.00;93676.50;5023816;28;20025;-92
2022/04/25 06:55:31;;;;;;;;;;;;;;;;;;;;;
2022/04/25 06:57:59;;;;;;;2.63;0.80;;;;;;;11.80;100.00;93677.09;5056433;28;20024;-90
2022/04/25 07:00:26;;;;;;;1.50;0.60;;;;;;;11.45;100.00;93680.06;5056004;28;20060;-91
2022/04/25 07:03:19;;;;;;;3.40;1.00;;;;;;;11.02;100.00;93681.03;5023795;28;20460;-91
2022/04/25 07:05:55;;;;;;;;;;;;;;;;;;;;;
2022/04/25 07:08:24;;;;;;;2.97;0.93;;;;;;;11.07;100.00;93688.06;5051452;28;20031;-90
2022/04/25 07:10:49;;;;;;;1.50;0.65;;;;;;;11.45;100.00;93682.69;5036191;28;20431;-92
2022/04/25 07:13:17;;;;;;;2.72;0.95;;;;;;;11.84;100.00;93685.94;5053285;28;20040;-91
2022/04/25 07:15:45;;;;;;;2.70;0.80;;;;;;;11.97;100.00;93684.38;5048032;28;20044;-91
2022/04/25 07:18:13;;;;;;;1.67;0.60;;;;;;;12.07;100.00;93680.81;5036018;28;20047;-91
2022/04/25 07:20:40;;;;;;;2.95;0.70;;;;;;;12.27;100.00;93682.25;5020274;28;20037;-91
2022/04/25 07:28:52;;;;;;;2.47;0.85;;;;;;;12.24;100.00;93685.47;5002461;28;20065;-92
2022/04/25 07:31:19;;;;;;;4.00;0.60;;;;;;;12.17;100.00;93692.94;5002220;28;20022;-91
2022/04/25 07:33:45;;;;;;;4.90;0.63;;;;;;;12.33;100.00;93693.44;5002742;28;20084;-91
2022/04/25 07:36:21;;;;;;;2.78;0.55;;;;;;;12.29;100.00;93687.97;4988099;28;20029;-91
2022/04/25 07:38:54;;;;;;;1.17;0.35;;;;;;;12.67;100.00;93691.41;4989216;28;20037;-91
2022/04/25 07:41:27;;;;;;;5.82;0.60;;;;;;;12.78;100.00;93699.84;4995668;28;20030;-91
2022/04/25 07:44:02;;;;;;;;;;;;;;;;;;;;;
2022/04/25 07:46:29;;;;;;;1.55;0.70;;;;;;;13.04;100.00;93696.66;5005269;28;20448;-90
2022/04/25 07:48:55;;;;;;;0.95;0.50;;;;;;;12.91;100.00;93700.88;4987803;28;20026;-92
2022/04/25 07:51:20;;;;;;;1.85;0.63;;;;;;;12.92;100.00;93697.94;5003922;28;20029;-91
2022/04/25 07:53:48;;;;;;;3.92;0.43;;;;;;;13.10;100.00;93705.97;5003724;28;20323;-91
2022/04/25 07:56:13;;;;;;;2.17;0.70;;;;;;;13.09;100.00;93710.44;5004020;28;20096;-90
2022/04/25 07:58:39;;;;;;;2.75;0.70;;;;;;;13.15;100.00;93701.34;5003816;28;20025;-90
2022/04/25 08:01:04;;;;;;;1.65;0.60;;;;;;;13.10;100.00;93716.47;5003834;28;20427;-92
2022/04/25 08:03:30;;;;;;;1.48;0.60;;;;;;;13.05;100.00;93714.75;5003314;28;20026;-90
2022/04/25 08:05:56;;;;;;;1.83;0.60;;;;;;;13.01;100.00;93717.22;5020675;28;20029;-92
2022/04/25 08:08:22;;;;;;;1.67;0.60;;;;;;;13.31;100.00;93714.13;5023036;28;20040;-89
2022/04/25 08:10:47;;;;;;;1.73;0.80;;;;;;;13.63;100.00;93730.00;5039595;28;20032;-90
2022/04/25 08:18:48;;;;;;;2.95;0.82;;;;;;;13.79;100.00;93741.69;5025397;28;20083;-90
2022/04/25 08:21:14;;;;;;;1.17;0.50;;;;;;;14.32;100.00;93738.47;5007402;28;20470;-91
2022/04/25 08:23:47;;;;;;;5.43;0.70;;;;;;;14.90;100.00;93738.44;5022879;28;20900;-91
2022/04/25 08:26:14;;;;;;;0.70;0.60;;;;;;;14.84;100.00;93748.38;5022683;28;20025;-92
2022/04/25 08:28:42;;;;;;;1.38;0.63;;;;;;;14.96;100.00;93742.50;5022808;28;20029;-91
2022/04/25 08:31:13;;;;;;;2.13;0.60;;;;;;;14.86;100.00;93746.22;5022513;28;20584;-92
2022/04/25 08:33:39;;;;;;;1.58;0.70;;;;;;;14.98;100.00;93749.00;5023732;28;20053;-91
2022/04/25 08:36:08;;;;;;;3.00;0.73;;;;;;;15.78;100.00;93744.41;5022826;28;20028;-90
2022/04/25 08:38:33;;;;;;;1.08;0.50;;;;;;;15.71;100.00;93748.63;5006308;28;20025;-90
2022/04/25 08:40:59;;;;;;;3.53;1.67;;;;;;;16.40;100.00;93746.84;5022323;28;20029;-91
2022/04/25 08:43:25;;;;;;;1.20;0.50;;;;;;;16.07;100.00;93742.19;5005981;28;20025;-91
2022/04/25 08:45:53;;;;;;;0.47;0.47;;;;;;;16.40;100.00;93746.84;5006115;28;20342;-91
2022/04/25 08:48:24;;;;;;;1.95;0.55;;;;;;;16.37;100.00;93756.19;5006449;28;20029;-91
2022/04/25 08:50:51;;;;;;;4.07;0.63;;;;;;;16.18;100.00;93766.38;5006473;28;20044;-92
2022/04/25 08:53:20;;;;;;;1.10;0.60;;;;;;;15.13;100.00;93768.88;5006059;28;20061;-91
2022/04/25 08:55:48;;;;;;;2.85;0.70;;;;;;;14.98;100.00;93769.34;5006219;28;20036;-91
2022/04/25 08:58:14;;;;;;;1.90;0.82;;;;;;;15.46;100.00;93777.38;5006306;28;20029;-92
2022/04/25 09:00:39;;;;;;;1.50;0.60;;;;;;;15.17;100.00;93778.81;5006261;28;20029;-90
2022/04/25 09:03:15;;;;;;;1.70;0.50;;;;;;;15.05;100.00;93774.91;5006077;28;20047;-90
2022/04/25 09:05:41;;;;;;;2.08;0.60;;;;;;;14.74;100.00;93778.44;5022035;28;20501;-90
2022/04/25 09:08:07;;;;;;;2.28;0.77;;;;;;;15.48;100.00;93767.28;5005840;28;20330;-91
2022/04/25 09:10:40;;;;;;;4.32;0.73;;;;;;;16.14;100.00;93776.81;5005772;28;20018;-91
2022/04/25 09:13:06;;;;;;;3.08;0.63;;;;;;;16.13;100.00;93769.97;5005482;28;20040;-91
2022/04/25 09:15:32;;;;;;;3.25;0.75;;;;;;;16.55;100.00;93774.59;5002378;28;20037;-91
2022/04/25 09:17:59;;;;;;;0.85;0.50;;;;;;;15.99;100.00;93774.69;5002422;28;20038;-91
2022/04/25 09:20:28;;;;;;;1.13;0.70;;;;;;;16.23;100.00;93784.69;5002283;28;20057;-91
2022/04/25 09:22:54;;;;;;;1.85;0.60;;;;;;;15.77;100.00;93787.75;5002419;28;20390;-90
2022/04/25 09:25:20;;;;;;;4.15;0.80;;;;;;;15.44;100.00;93798.84;4985848;28;20031;-90
2022/04/25 09:27:47;;;;;;;1.63;0.90;;;;;;;14.68;100.00;93782.28;5001813;28;20037;-91
2022/04/25 09:30:20;;;;;;;2.55;1.15;;;;;;;14.55;100.00;93795.28;4986982;28;20049;-90
2022/04/25 09:33:00;;;;;;;4.38;0.88;;;;;;;14.59;100.00;93802.56;5005502;28;20466;-91
2022/04/25 09:35:33;;;;;;;2.50;0.70;;;;;;;14.23;100.00;93799.03;4986710;28;20038;-91
2022/04/25 09:38:06;;;;;;;1.07;0.67;;;;;;;14.58;100.00;93809.72;5002252;28;20034;-90
2022/04/25 09:40:36;;;;;;;3.83;0.80;;;;;;;13.75;100.00;93803.13;5002012;28;20419;-91
2022/04/25 09:43:15;;;;;;;1.35;0.60;;;;;;;14.30;100.00;93809.16;5001980;28;20305;-90
2022/04/25 09:45:42;;;;;;;2.47;0.90;;;;;;;14.92;100.00;93812.75;5017321;28;20022;-91
2022/04/25 09:48:12;;;;;;;3.67;0.88;;;;;;;14.96;100.00;93811.84;4985941;28;20439;-91
2022/04/25 09:50:38;;;;;;;2.47;0.60;;;;;;;14.87;100.00;93810.28;5001513;28;20033;-91
2022/04/25 09:53:08;;;;;;;2.35;0.80;;;;;;;15.02;100.00;93819.63;4985313;28;20026;-91
2022/04/25 09:55:47;;;;;;;6.43;0.80;;;;;;;15.81;100.00;93817.72;5016773;28;20054;-93
2022/04/25 09:58:23;;;;;;;2.63;0.63;;;;;;;15.87;100.00;93815.69;5002918;28;20431;-92
2022/04/25 10:00:53;;;;;;;2.00;0.65;;;;;;;16.66;100.00;93826.03;5017251;28;20029;-91
2022/04/25 10:03:32;;;;;;;3.42;0.82;;;;;;;16.95;100.00;93821.84;4985709;28;20485;-92
2022/04/25 10:06:01;;;;;;;2.42;0.73;;;;;;;16.40;100.00;93826.91;5017654;28;20026;-90
2022/04/25 10:08:48;;;;;;;2.17;0.75;;;;;;;16.80;82.25;93827.69;5019713;28;20434;-91
2022/04/25 10:11:15;;;;;;;3.00;1.33;;;;;;;15.61;100.00;93828.94;5044043;28;20047;-92
2022/04/25 10:13:45;;;;;;;1.27;0.80;;;;;;;15.74;98.26;93835.13;5040712;28;20025;-91
2022/04/25 10:16:11;;;;;;;2.10;0.80;;;;;;;15.07;100.00;93825.53;5040572;28;20434;-92
2022/04/25 10:18:38;;;;;;;3.92;1.02;;;;;;;14.55;100.00;93834.03;5006228;28;20035;-91
2022/04/25 10:21:07;;;;;;;1.65;0.63;;;;;;;15.18;100.00;93839.19;5021328;28;20510;-90
2022/04/25 10:23:33;;;;;;;2.05;0.63;;;;;;;14.66;100.00;93829.28;5020976;28;20026;-91
2022/04/25 10:26:01;;;;;;;2.10;0.82;;;;;;;14.63;100.00;93830.66;5004046;28;20029;-91
2022/04/25 10:29:07;;;;;;;;;;;;;;;;;;;;;
2022/04/25 10:31:41;;;;;;;2.83;0.82;;;;;;;15.74;95.88;93837.78;5005900;28;20045;-91
2022/04/25 10:34:14;;;;;;;0.85;0.63;;;;;;;15.37;100.00;93830.97;5004672;28;20124;-93
2022/04/25 10:36:49;;;;;;;;;;;;;;;;;;;;;
2022/04/25 10:39:32;;;;;;;1.88;0.80;;;;;;;14.95;100.00;93835.91;5037758;28;20032;-92
2022/04/25 10:44:46;;;;;;;2.58;0.70;;;;;;;15.47;100.00;93829.88;5037694;28;20111;-92
2022/04/25 10:47:20;;;;;;;2.47;0.70;;;;;;;15.66;91.36;93828.78;5037562;28;20033;-92
2022/04/25 10:49:49;;;;;;;1.88;0.70;;;;;;;16.87;87.63;93824.53;5053183;28;20048;-93
2022/04/25 10:52:54;;;;;;;;;;;;;;;;;;;;;
2022/04/25 10:55:38;;;;;;;1.50;0.60;;;;;;;15.53;100.00;93835.78;5037522;28;20037;-92
2022/04/25 10:58:10;;;;;;;0.47;0.40;;;;;;;15.92;100.00;93843.84;5019948;28;20032;-93
2022/04/25 11:00:36;;;;;;;3.23;0.80;;;;;;;15.46;97.85;93838.91;5033509;28;20423;-91
2022/04/25 11:03:13;;;;;;;3.15;0.70;;;;;;;15.77;100.00;93842.44;5037197;28;20308;-91
2022/04/25 11:05:40;;;;;;;1.02;0.52;;;;;;;16.08;85.84;93833.56;5024295;28;20045;-91
2022/04/25 11:08:27;;;;;;;5.60;1.52;;;;;;;15.34;100.00;93830.81;5040464;28;20036;-91
2022/04/25 11:11:04;;;;;;;2.10;0.73;;;;;;;14.66;100.00;93853.00;5028782;28;20021;-92
2022/04/25 11:13:53;;;;;;;1.80;0.60;;;;;;;14.73;100.00;93844.69;5003590;28;20033;-90
2022/04/25 11:16:24;;;;;;;0.55;0.55;;;;;;;14.70;100.00;93841.56;5034323;28;20037;-91
2022/04/25 11:19:08;;;;;;;1.13;0.73;;;;;;;14.87;100.00;93845.34;5030394;28;20120;-92
2022/04/25 11:21:34;;;;;;;1.67;0.70;;;;;;;15.30;100.00;93849.13;5040004;28;20040;-92
2022/04/25 11:24:01;;;;;;;0.40;0.40;;;;;;;15.29;99.89;93860.78;5028768;28;20029;-93
2022/04/25 11:26:28;;;;;;;4.63;0.70;;;;;;;14.78;100.00;93852.44;5019355;28;20025;-92
2022/04/25 11:29:14;;;;;;;;;;;;;;;;;;;;;
2022/04/25 11:31:47;;;;;;;2.78;0.68;;;;;;;15.10;100.00;93861.84;5037391;28;20021;-91
2022/04/25 11:34:32;;;;;;;;;;;;;;;;;;;;;
2022/04/25 11:37:00;;;;;;;3.20;1.05;;;;;;;14.49;100.00;93874.81;5021016;28;20028;-92
2022/04/25 11:42:37;;;;;;;1.50;0.77;;;;;;;14.72;100.00;93878.19;5022435;28;20103;-91
2022/04/25 11:48:11;;;;;;;3.60;1.10;;;;;;;14.91;100.00;93882.41;5008682;28;20029;-92
2022/04/25 11:50:40;;;;;;;2.50;1.23;;;;;;;15.50;100.00;93897.13;5003636;28;20120;-93
2022/04/25 11:53:22;;;;;;;;;;;;;;;;;;;;;
2022/04/25 11:55:49;;;;;;;2.90;1.10;;;;;;;15.14;98.08;93901.59;5036818;28;20021;-92
2022/04/25 11:58:28;;;;;;;1.50;0.80;;;;;;;15.65;96.35;93899.31;5019321;28;20049;-93
2022/04/25 12:00:56;;;;;;;4.60;1.38;;;;;;;14.83;100.00;93892.66;5003663;28;20025;-92
2022/04/25 12:03:24;;;;;;;2.85;1.27;;;;;;;14.35;100.00;93890.72;5035802;28;20026;-92
2022/04/25 12:05:50;;;;;;;3.13;1.30;;;;;;;14.68;100.00;93900.94;5019536;28;20056;-93
2022/04/25 12:16:41;;;;;;;3.40;1.50;;;;;;;14.40;100.00;93901.13;5035905;28;20405;-93
2022/04/25 12:19:12;;;;;;;3.55;1.25;;;;;;;14.11;100.00;93915.53;5004808;28;20378;-91
2022/04/25 12:21:40;;;;;;;1.95;1.40;;;;;;;14.19;100.00;93938.50;5007053;28;20025;-88
2022/04/25 12:24:26;;;;;;;2.13;1.27;;;;;;;13.91;100.00;93920.19;5006958;28;20039;-91
2022/04/25 12:26:52;;;;;;;4.65;1.50;;;;;;;14.01;100.00;93913.91;5021880;28;20045;-89
2022/04/25 12:29:17;;;;;;;3.42;1.40;;;;;;;13.84;100.00;93919.81;5038990;28;20033;-89
2022/04/25 12:31:45;;;;;;;2.63;1.52;;;;;;;13.56;100.00;93919.91;5022563;28;20029;-88
2022/04/25 12:34:12;;;;;;;2.90;1.52;;;;;;;13.49;100.00;93922.19;5022589;28;20071;-89
2022/04/25 12:37:05;;;;;;;4.10;1.58;;;;;;;13.53;100.00;93929.16;5022732;28;20049;-89
2022/04/25 12:39:34;;;;;;;4.72;1.50;;;;;;;13.56;100.00;93933.88;5038834;28;20026;-88
2022/04/25 12:42:00;;;;;;;2.65;1.75;;;;;;;13.85;100.00;93932.72;5006765;28;20030;-88
2022/04/25 12:44:27;;;;;;;6.75;1.90;;;;;;;13.94;100.00;93926.72;5038443;28;20021;-89
2022/04/25 12:47:03;;;;;;;4.80;1.60;;;;;;;14.21;100.00;93925.03;5006501;28;20029;-88